sensor_id;sensor_type;location;lat;lon;timestamp;P1;durP1;ratioP1;P2;durP2;ratioP2
79755;SDS011;69239;50.678;12.280;2023-11-19T00:01:52;0.40;;;0.40;;
79755;SDS011;69239;50.678;12.280;2023-11-19T00:04:18;0.68;;;0.47;;
79755;SDS011;69239;50.678;12.280;2023-11-19T00:06:43;0.82;;;0.40;;
79755;SDS011;69239;50.678;12.280;2023-11-19T00:09:09;0.50;;;0.40;;
79755;SDS011;69239;50.678;12.280;2023-11-19T00:11:34;0.50;;;0.40;;
79755;SDS011;69239;50.678;12.280;2023-11-19T00:14:00;0.50;;;0.50;;
79755;SDS011;69239;50.678;12.280;2023-11-19T00:16:25;0.60;;;0.60;;
79755;SDS011;69239;50.678;12.280;2023-11-19T00:18:50;0.70;;;0.70;;
79755;SDS011;69239;50.678;12.280;2023-11-19T00:21:16;0.50;;;0.47;;
79755;SDS011;69239;50.678;12.280;2023-11-19T00:23:41;0.82;;;0.75;;
79755;SDS011;69239;50.678;12.280;2023-11-19T00:26:06;1.00;;;0.73;;
79755;SDS011;69239;50.678;12.280;2023-11-19T00:28:32;0.82;;;0.80;;
79755;SDS011;69239;50.678;12.280;2023-11-19T00:30:58;1.02;;;0.90;;
79755;SDS011;69239;50.678;12.280;2023-11-19T00:33:24;0.80;;;0.77;;
79755;SDS011;69239;50.678;12.280;2023-11-19T00:35:49;0.90;;;0.70;;
79755;SDS011;69239;50.678;12.280;2023-11-19T00:38:15;0.70;;;0.70;;
79755;SDS011;69239;50.678;12.280;2023-11-19T00:40:41;1.05;;;0.70;;
79755;SDS011;69239;50.678;12.280;2023-11-19T00:43:06;0.77;;;0.73;;
79755;SDS011;69239;50.678;12.280;2023-11-19T00:45:32;0.93;;;0.82;;
79755;SDS011;69239;50.678;12.280;2023-11-19T00:47:58;1.42;;;1.10;;
79755;SDS011;69239;50.678;12.280;2023-11-19T00:50:24;1.45;;;0.73;;
79755;SDS011;69239;50.678;12.280;2023-11-19T00:52:50;1.05;;;0.98;;
79755;SDS011;69239;50.678;12.280;2023-11-19T00:55:16;0.80;;;0.80;;
79755;SDS011;69239;50.678;12.280;2023-11-19T00:57:42;1.17;;;1.00;;
79755;SDS011;69239;50.678;12.280;2023-11-19T01:00:08;1.10;;;1.00;;
79755;SDS011;69239;50.678;12.280;2023-11-19T01:02:43;0.70;;;0.70;;
79755;SDS011;69239;50.678;12.280;2023-11-19T01:05:10;1.60;;;1.40;;
79755;SDS011;69239;50.678;12.280;2023-11-19T01:07:39;1.27;;;1.13;;
79755;SDS011;69239;50.678;12.280;2023-11-19T01:10:05;1.10;;;0.98;;
79755;SDS011;69239;50.678;12.280;2023-11-19T01:12:31;1.88;;;1.05;;
79755;SDS011;69239;50.678;12.280;2023-11-19T01:14:56;1.20;;;1.10;;
79755;SDS011;69239;50.678;12.280;2023-11-19T01:17:23;1.20;;;1.10;;
79755;SDS011;69239;50.678;12.280;2023-11-19T01:19:48;0.98;;;0.88;;
79755;SDS011;69239;50.678;12.280;2023-11-19T01:22:15;0.88;;;0.88;;
79755;SDS011;69239;50.678;12.280;2023-11-19T01:24:40;1.67;;;1.05;;
79755;SDS011;69239;50.678;12.280;2023-11-19T01:27:06;1.73;;;0.82;;
79755;SDS011;69239;50.678;12.280;2023-11-19T01:29:31;0.90;;;0.80;;
79755;SDS011;69239;50.678;12.280;2023-11-19T01:31:56;1.92;;;0.93;;
79755;SDS011;69239;50.678;12.280;2023-11-19T01:34:22;1.50;;;1.15;;
79755;SDS011;69239;50.678;12.280;2023-11-19T01:36:47;1.60;;;1.17;;
79755;SDS011;69239;50.678;12.280;2023-11-19T01:39:13;0.90;;;0.90;;
79755;SDS011;69239;50.678;12.280;2023-11-19T01:41:41;1.98;;;1.30;;
79755;SDS011;69239;50.678;12.280;2023-11-19T01:44:07;1.35;;;1.25;;
79755;SDS011;69239;50.678;12.280;2023-11-19T01:46:32;1.52;;;1.30;;
79755;SDS011;69239;50.678;12.280;2023-11-19T01:48:59;2.10;;;1.25;;
79755;SDS011;69239;50.678;12.280;2023-11-19T01:51:25;1.77;;;1.38;;
79755;SDS011;69239;50.678;12.280;2023-11-19T01:53:52;1.83;;;1.60;;
79755;SDS011;69239;50.678;12.280;2023-11-19T01:56:18;2.22;;;2.13;;
79755;SDS011;69239;50.678;12.280;2023-11-19T01:58:44;2.22;;;1.33;;
79755;SDS011;69239;50.678;12.280;2023-11-19T02:01:11;1.48;;;1.08;;
79755;SDS011;69239;50.678;12.280;2023-11-19T02:03:37;1.58;;;1.30;;
79755;SDS011;69239;50.678;12.280;2023-11-19T02:06:03;1.85;;;1.42;;
79755;SDS011;69239;50.678;12.280;2023-11-19T02:08:29;2.35;;;1.38;;
79755;SDS011;69239;50.678;12.280;2023-11-19T02:10:55;1.38;;;1.27;;
79755;SDS011;69239;50.678;12.280;2023-11-19T02:13:25;0.50;;;0.45;;
79755;SDS011;69239;50.678;12.280;2023-11-19T02:15:51;1.10;;;0.80;;
79755;SDS011;69239;50.678;12.280;2023-11-19T02:18:20;1.48;;;1.35;;
79755;SDS011;69239;50.678;12.280;2023-11-19T02:20:48;1.83;;;1.25;;
79755;SDS011;69239;50.678;12.280;2023-11-19T02:23:15;1.60;;;1.25;;
79755;SDS011;69239;50.678;12.280;2023-11-19T02:25:40;1.55;;;1.42;;
79755;SDS011;69239;50.678;12.280;2023-11-19T02:28:07;1.48;;;1.00;;
79755;SDS011;69239;50.678;12.280;2023-11-19T02:30:33;1.02;;;0.93;;
79755;SDS011;69239;50.678;12.280;2023-11-19T02:32:59;1.40;;;1.25;;
79755;SDS011;69239;50.678;12.280;2023-11-19T02:35:28;1.15;;;1.05;;
79755;SDS011;69239;50.678;12.280;2023-11-19T02:37:56;1.38;;;1.27;;
79755;SDS011;69239;50.678;12.280;2023-11-19T02:40:24;0.77;;;0.77;;
79755;SDS011;69239;50.678;12.280;2023-11-19T02:42:50;1.58;;;1.20;;
79755;SDS011;69239;50.678;12.280;2023-11-19T02:45:16;1.30;;;1.20;;
79755;SDS011;69239;50.678;12.280;2023-11-19T02:47:42;1.23;;;1.10;;
79755;SDS011;69239;50.678;12.280;2023-11-19T02:50:09;1.77;;;1.27;;
79755;SDS011;69239;50.678;12.280;2023-11-19T02:52:39;1.55;;;1.35;;
79755;SDS011;69239;50.678;12.280;2023-11-19T02:55:05;1.02;;;1.00;;
79755;SDS011;69239;50.678;12.280;2023-11-19T02:57:34;1.10;;;0.98;;
79755;SDS011;69239;50.678;12.280;2023-11-19T03:00:00;1.25;;;1.10;;
79755;SDS011;69239;50.678;12.280;2023-11-19T03:02:25;1.30;;;1.13;;
79755;SDS011;69239;50.678;12.280;2023-11-19T03:04:58;1.70;;;1.30;;
79755;SDS011;69239;50.678;12.280;2023-11-19T03:07:25;1.55;;;1.10;;
79755;SDS011;69239;50.678;12.280;2023-11-19T03:09:50;1.05;;;0.95;;
79755;SDS011;69239;50.678;12.280;2023-11-19T03:12:15;1.98;;;1.13;;
79755;SDS011;69239;50.678;12.280;2023-11-19T03:14:41;1.20;;;1.10;;
79755;SDS011;69239;50.678;12.280;2023-11-19T03:17:07;1.10;;;0.80;;
79755;SDS011;69239;50.678;12.280;2023-11-19T03:19:34;1.10;;;1.00;;
79755;SDS011;69239;50.678;12.280;2023-11-19T03:22:01;1.05;;;0.95;;
79755;SDS011;69239;50.678;12.280;2023-11-19T03:24:26;0.75;;;0.75;;
79755;SDS011;69239;50.678;12.280;2023-11-19T03:26:52;1.10;;;1.00;;
79755;SDS011;69239;50.678;12.280;2023-11-19T03:29:17;3.03;;;0.98;;
79755;SDS011;69239;50.678;12.280;2023-11-19T03:31:43;1.00;;;0.88;;
79755;SDS011;69239;50.678;12.280;2023-11-19T03:34:09;1.08;;;0.95;;
79755;SDS011;69239;50.678;12.280;2023-11-19T03:36:35;0.88;;;0.77;;
79755;SDS011;69239;50.678;12.280;2023-11-19T03:39:00;0.98;;;0.77;;
79755;SDS011;69239;50.678;12.280;2023-11-19T03:41:26;0.50;;;0.50;;
79755;SDS011;69239;50.678;12.280;2023-11-19T03:43:51;0.80;;;0.80;;
79755;SDS011;69239;50.678;12.280;2023-11-19T03:46:17;0.70;;;0.70;;
79755;SDS011;69239;50.678;12.280;2023-11-19T03:48:43;0.98;;;0.88;;
79755;SDS011;69239;50.678;12.280;2023-11-19T03:51:09;0.85;;;0.80;;
79755;SDS011;69239;50.678;12.280;2023-11-19T03:53:34;0.80;;;0.80;;
79755;SDS011;69239;50.678;12.280;2023-11-19T03:56:00;0.82;;;0.80;;
79755;SDS011;69239;50.678;12.280;2023-11-19T03:58:26;0.80;;;0.75;;
79755;SDS011;69239;50.678;12.280;2023-11-19T04:00:51;0.85;;;0.60;;
79755;SDS011;69239;50.678;12.280;2023-11-19T04:03:17;0.60;;;0.60;;
79755;SDS011;69239;50.678;12.280;2023-11-19T04:05:44;1.10;;;0.98;;
79755;SDS011;69239;50.678;12.280;2023-11-19T04:08:10;2.47;;;0.93;;
79755;SDS011;69239;50.678;12.280;2023-11-19T04:10:35;0.57;;;0.57;;
79755;SDS011;69239;50.678;12.280;2023-11-19T04:13:00;1.38;;;0.85;;
79755;SDS011;69239;50.678;12.280;2023-11-19T04:15:26;1.27;;;0.73;;
79755;SDS011;69239;50.678;12.280;2023-11-19T04:17:51;2.55;;;0.80;;
79755;SDS011;69239;50.678;12.280;2023-11-19T04:20:17;1.00;;;0.82;;
79755;SDS011;69239;50.678;12.280;2023-11-19T04:22:43;0.85;;;0.80;;
79755;SDS011;69239;50.678;12.280;2023-11-19T04:25:08;0.80;;;0.70;;
79755;SDS011;69239;50.678;12.280;2023-11-19T04:27:34;1.10;;;0.80;;
79755;SDS011;69239;50.678;12.280;2023-11-19T04:29:59;0.85;;;0.85;;
79755;SDS011;69239;50.678;12.280;2023-11-19T04:32:26;0.52;;;0.52;;
79755;SDS011;69239;50.678;12.280;2023-11-19T04:34:52;0.73;;;0.70;;
79755;SDS011;69239;50.678;12.280;2023-11-19T04:37:17;0.60;;;0.60;;
79755;SDS011;69239;50.678;12.280;2023-11-19T04:39:46;0.60;;;0.60;;
79755;SDS011;69239;50.678;12.280;2023-11-19T04:42:11;1.45;;;0.80;;
79755;SDS011;69239;50.678;12.280;2023-11-19T04:44:37;0.70;;;0.47;;
79755;SDS011;69239;50.678;12.280;2023-11-19T04:47:03;0.50;;;0.50;;
79755;SDS011;69239;50.678;12.280;2023-11-19T04:49:28;0.55;;;0.50;;
79755;SDS011;69239;50.678;12.280;2023-11-19T04:51:55;0.35;;;0.32;;
79755;SDS011;69239;50.678;12.280;2023-11-19T04:54:21;0.50;;;0.50;;
79755;SDS011;69239;50.678;12.280;2023-11-19T04:56:46;0.60;;;0.60;;
79755;SDS011;69239;50.678;12.280;2023-11-19T04:59:12;0.77;;;0.77;;
79755;SDS011;69239;50.678;12.280;2023-11-19T05:01:38;0.77;;;0.50;;
79755;SDS011;69239;50.678;12.280;2023-11-19T05:04:03;0.43;;;0.43;;
79755;SDS011;69239;50.678;12.280;2023-11-19T05:06:29;0.60;;;0.50;;
79755;SDS011;69239;50.678;12.280;2023-11-19T05:08:55;0.80;;;0.77;;
79755;SDS011;69239;50.678;12.280;2023-11-19T05:11:21;1.52;;;0.80;;
79755;SDS011;69239;50.678;12.280;2023-11-19T05:13:47;1.25;;;0.47;;
79755;SDS011;69239;50.678;12.280;2023-11-19T05:16:12;0.38;;;0.38;;
79755;SDS011;69239;50.678;12.280;2023-11-19T05:18:41;0.50;;;0.50;;
79755;SDS011;69239;50.678;12.280;2023-11-19T05:21:06;0.57;;;0.40;;
79755;SDS011;69239;50.678;12.280;2023-11-19T05:23:32;0.70;;;0.70;;
79755;SDS011;69239;50.678;12.280;2023-11-19T05:25:59;0.60;;;0.60;;
79755;SDS011;69239;50.678;12.280;2023-11-19T05:28:25;0.40;;;0.40;;
79755;SDS011;69239;50.678;12.280;2023-11-19T05:30:51;0.65;;;0.60;;
79755;SDS011;69239;50.678;12.280;2023-11-19T05:33:16;0.52;;;0.40;;
79755;SDS011;69239;50.678;12.280;2023-11-19T05:35:42;0.70;;;0.50;;
79755;SDS011;69239;50.678;12.280;2023-11-19T05:38:07;0.98;;;0.60;;
79755;SDS011;69239;50.678;12.280;2023-11-19T05:40:34;0.93;;;0.60;;
79755;SDS011;69239;50.678;12.280;2023-11-19T05:43:00;0.60;;;0.40;;
79755;SDS011;69239;50.678;12.280;2023-11-19T05:45:25;0.60;;;0.57;;
79755;SDS011;69239;50.678;12.280;2023-11-19T05:47:51;1.42;;;0.70;;
79755;SDS011;69239;50.678;12.280;2023-11-19T05:50:17;1.35;;;0.70;;
79755;SDS011;69239;50.678;12.280;2023-11-19T05:52:43;0.43;;;0.40;;
79755;SDS011;69239;50.678;12.280;2023-11-19T05:55:08;0.45;;;0.38;;
79755;SDS011;69239;50.678;12.280;2023-11-19T05:57:35;0.45;;;0.40;;
79755;SDS011;69239;50.678;12.280;2023-11-19T06:00:05;1.38;;;0.80;;
79755;SDS011;69239;50.678;12.280;2023-11-19T06:02:35;1.20;;;0.63;;
79755;SDS011;69239;50.678;12.280;2023-11-19T06:05:03;0.77;;;0.77;;
79755;SDS011;69239;50.678;12.280;2023-11-19T06:07:30;0.68;;;0.50;;
79755;SDS011;69239;50.678;12.280;2023-11-19T06:09:56;0.40;;;0.40;;
79755;SDS011;69239;50.678;12.280;2023-11-19T06:12:22;0.80;;;0.52;;
79755;SDS011;69239;50.678;12.280;2023-11-19T06:14:47;1.08;;;0.70;;
79755;SDS011;69239;50.678;12.280;2023-11-19T06:17:12;0.60;;;0.60;;
79755;SDS011;69239;50.678;12.280;2023-11-19T06:19:38;0.40;;;0.38;;
79755;SDS011;69239;50.678;12.280;2023-11-19T06:22:04;0.68;;;0.50;;
79755;SDS011;69239;50.678;12.280;2023-11-19T06:24:29;0.68;;;0.38;;
79755;SDS011;69239;50.678;12.280;2023-11-19T06:26:55;0.32;;;0.30;;
79755;SDS011;69239;50.678;12.280;2023-11-19T06:29:20;0.30;;;0.30;;
79755;SDS011;69239;50.678;12.280;2023-11-19T06:31:46;0.63;;;0.50;;
79755;SDS011;69239;50.678;12.280;2023-11-19T06:34:14;0.68;;;0.50;;
79755;SDS011;69239;50.678;12.280;2023-11-19T06:36:40;0.47;;;0.40;;
79755;SDS011;69239;50.678;12.280;2023-11-19T06:39:05;0.30;;;0.30;;
79755;SDS011;69239;50.678;12.280;2023-11-19T06:41:31;0.28;;;0.28;;
79755;SDS011;69239;50.678;12.280;2023-11-19T06:43:56;0.22;;;0.22;;
79755;SDS011;69239;50.678;12.280;2023-11-19T06:46:22;0.28;;;0.28;;
79755;SDS011;69239;50.678;12.280;2023-11-19T06:48:47;0.50;;;0.40;;
79755;SDS011;69239;50.678;12.280;2023-11-19T06:51:12;0.30;;;0.30;;
79755;SDS011;69239;50.678;12.280;2023-11-19T06:53:38;0.70;;;0.47;;
79755;SDS011;69239;50.678;12.280;2023-11-19T06:56:16;0.50;;;0.50;;
79755;SDS011;69239;50.678;12.280;2023-11-19T06:58:43;0.55;;;0.47;;
79755;SDS011;69239;50.678;12.280;2023-11-19T07:01:08;1.92;;;0.77;;
79755;SDS011;69239;50.678;12.280;2023-11-19T07:03:34;1.65;;;1.20;;
79755;SDS011;69239;50.678;12.280;2023-11-19T07:06:00;1.98;;;1.27;;
79755;SDS011;69239;50.678;12.280;2023-11-19T07:08:25;3.33;;;1.17;;
79755;SDS011;69239;50.678;12.280;2023-11-19T07:10:51;0.57;;;0.35;;
79755;SDS011;69239;50.678;12.280;2023-11-19T07:13:17;0.73;;;0.40;;
79755;SDS011;69239;50.678;12.280;2023-11-19T07:15:44;0.40;;;0.40;;
79755;SDS011;69239;50.678;12.280;2023-11-19T07:18:09;0.45;;;0.40;;
79755;SDS011;69239;50.678;12.280;2023-11-19T07:20:36;0.60;;;0.40;;
79755;SDS011;69239;50.678;12.280;2023-11-19T07:23:02;1.08;;;0.43;;
79755;SDS011;69239;50.678;12.280;2023-11-19T07:25:28;1.25;;;0.43;;
79755;SDS011;69239;50.678;12.280;2023-11-19T07:27:54;0.80;;;0.50;;
79755;SDS011;69239;50.678;12.280;2023-11-19T07:30:19;0.65;;;0.50;;
79755;SDS011;69239;50.678;12.280;2023-11-19T07:32:44;0.80;;;0.43;;
79755;SDS011;69239;50.678;12.280;2023-11-19T07:35:10;0.57;;;0.40;;
79755;SDS011;69239;50.678;12.280;2023-11-19T07:37:35;0.82;;;0.38;;
79755;SDS011;69239;50.678;12.280;2023-11-19T07:40:00;0.68;;;0.40;;
79755;SDS011;69239;50.678;12.280;2023-11-19T07:42:26;0.38;;;0.32;;
79755;SDS011;69239;50.678;12.280;2023-11-19T07:44:52;0.43;;;0.43;;
79755;SDS011;69239;50.678;12.280;2023-11-19T07:47:19;0.95;;;0.40;;
79755;SDS011;69239;50.678;12.280;2023-11-19T07:49:44;1.05;;;0.50;;
79755;SDS011;69239;50.678;12.280;2023-11-19T07:52:10;1.20;;;0.40;;
79755;SDS011;69239;50.678;12.280;2023-11-19T07:54:35;1.02;;;0.32;;
79755;SDS011;69239;50.678;12.280;2023-11-19T07:57:01;0.63;;;0.30;;
79755;SDS011;69239;50.678;12.280;2023-11-19T07:59:26;0.38;;;0.30;;
79755;SDS011;69239;50.678;12.280;2023-11-19T08:01:51;1.05;;;0.40;;
79755;SDS011;69239;50.678;12.280;2023-11-19T08:04:17;0.38;;;0.38;;
79755;SDS011;69239;50.678;12.280;2023-11-19T08:06:42;0.30;;;0.20;;
79755;SDS011;69239;50.678;12.280;2023-11-19T08:09:08;0.85;;;0.30;;
79755;SDS011;69239;50.678;12.280;2023-11-19T08:11:38;0.30;;;0.22;;
79755;SDS011;69239;50.678;12.280;2023-11-19T08:14:05;3.75;;;2.17;;
79755;SDS011;69239;50.678;12.280;2023-11-19T08:16:30;1.25;;;0.40;;
79755;SDS011;69239;50.678;12.280;2023-11-19T08:18:56;0.52;;;0.40;;
79755;SDS011;69239;50.678;12.280;2023-11-19T08:21:23;1.02;;;0.40;;
79755;SDS011;69239;50.678;12.280;2023-11-19T08:23:48;0.98;;;0.38;;
79755;SDS011;69239;50.678;12.280;2023-11-19T08:26:14;0.60;;;0.52;;
79755;SDS011;69239;50.678;12.280;2023-11-19T08:28:40;0.47;;;0.30;;
79755;SDS011;69239;50.678;12.280;2023-11-19T08:31:05;0.63;;;0.40;;
79755;SDS011;69239;50.678;12.280;2023-11-19T08:33:31;1.45;;;0.45;;
79755;SDS011;69239;50.678;12.280;2023-11-19T08:35:57;2.47;;;0.40;;
79755;SDS011;69239;50.678;12.280;2023-11-19T08:38:23;2.08;;;0.70;;
79755;SDS011;69239;50.678;12.280;2023-11-19T08:40:49;1.30;;;0.35;;
79755;SDS011;69239;50.678;12.280;2023-11-19T08:43:14;0.43;;;0.30;;
79755;SDS011;69239;50.678;12.280;2023-11-19T08:45:41;0.55;;;0.40;;
79755;SDS011;69239;50.678;12.280;2023-11-19T08:48:06;1.08;;;0.40;;
79755;SDS011;69239;50.678;12.280;2023-11-19T08:50:31;1.05;;;0.50;;
79755;SDS011;69239;50.678;12.280;2023-11-19T08:52:57;0.98;;;0.32;;
79755;SDS011;69239;50.678;12.280;2023-11-19T08:55:22;0.50;;;0.32;;
79755;SDS011;69239;50.678;12.280;2023-11-19T08:57:48;0.60;;;0.30;;
79755;SDS011;69239;50.678;12.280;2023-11-19T09:00:13;2.17;;;0.60;;
79755;SDS011;69239;50.678;12.280;2023-11-19T09:02:41;0.68;;;0.43;;
79755;SDS011;69239;50.678;12.280;2023-11-19T09:05:08;0.57;;;0.40;;
79755;SDS011;69239;50.678;12.280;2023-11-19T09:07:33;0.73;;;0.40;;
79755;SDS011;69239;50.678;12.280;2023-11-19T09:09:58;1.70;;;0.50;;
79755;SDS011;69239;50.678;12.280;2023-11-19T09:12:24;0.70;;;0.60;;
79755;SDS011;69239;50.678;12.280;2023-11-19T09:14:49;0.43;;;0.40;;
79755;SDS011;69239;50.678;12.280;2023-11-19T09:17:15;0.90;;;0.50;;
79755;SDS011;69239;50.678;12.280;2023-11-19T09:19:40;0.70;;;0.40;;
79755;SDS011;69239;50.678;12.280;2023-11-19T09:22:06;1.05;;;0.50;;
79755;SDS011;69239;50.678;12.280;2023-11-19T09:24:32;1.17;;;0.73;;
79755;SDS011;69239;50.678;12.280;2023-11-19T09:26:58;1.30;;;0.55;;
79755;SDS011;69239;50.678;12.280;2023-11-19T09:29:23;0.68;;;0.65;;
79755;SDS011;69239;50.678;12.280;2023-11-19T09:31:48;1.45;;;0.50;;
79755;SDS011;69239;50.678;12.280;2023-11-19T09:34:14;1.02;;;0.40;;
79755;SDS011;69239;50.678;12.280;2023-11-19T09:36:39;2.03;;;0.60;;
79755;SDS011;69239;50.678;12.280;2023-11-19T09:39:09;1.92;;;0.77;;
79755;SDS011;69239;50.678;12.280;2023-11-19T09:41:39;0.88;;;0.43;;
79755;SDS011;69239;50.678;12.280;2023-11-19T09:44:06;0.73;;;0.40;;
79755;SDS011;69239;50.678;12.280;2023-11-19T09:46:31;0.82;;;0.32;;
79755;SDS011;69239;50.678;12.280;2023-11-19T09:48:57;2.25;;;0.60;;
79755;SDS011;69239;50.678;12.280;2023-11-19T09:51:24;0.47;;;0.47;;
79755;SDS011;69239;50.678;12.280;2023-11-19T09:53:50;0.60;;;0.30;;
79755;SDS011;69239;50.678;12.280;2023-11-19T09:56:16;1.00;;;0.50;;
79755;SDS011;69239;50.678;12.280;2023-11-19T09:58:44;0.88;;;0.60;;
79755;SDS011;69239;50.678;12.280;2023-11-19T10:01:09;1.35;;;0.57;;
79755;SDS011;69239;50.678;12.280;2023-11-19T10:03:37;1.00;;;0.55;;
79755;SDS011;69239;50.678;12.280;2023-11-19T10:06:08;1.80;;;0.40;;
79755;SDS011;69239;50.678;12.280;2023-11-19T10:08:34;1.08;;;0.55;;
79755;SDS011;69239;50.678;12.280;2023-11-19T10:11:02;1.35;;;0.60;;
79755;SDS011;69239;50.678;12.280;2023-11-19T10:13:28;1.98;;;0.70;;
79755;SDS011;69239;50.678;12.280;2023-11-19T10:15:55;0.75;;;0.50;;
79755;SDS011;69239;50.678;12.280;2023-11-19T10:18:26;2.08;;;0.90;;
79755;SDS011;69239;50.678;12.280;2023-11-19T10:20:52;1.80;;;0.50;;
79755;SDS011;69239;50.678;12.280;2023-11-19T10:23:18;3.35;;;0.60;;
79755;SDS011;69239;50.678;12.280;2023-11-19T10:25:44;1.63;;;0.50;;
79755;SDS011;69239;50.678;12.280;2023-11-19T10:28:10;3.42;;;0.95;;
79755;SDS011;69239;50.678;12.280;2023-11-19T10:30:35;2.03;;;0.65;;
79755;SDS011;69239;50.678;12.280;2023-11-19T10:35:34;4.25;;;0.90;;
79755;SDS011;69239;50.678;12.280;2023-11-19T10:38:13;2.70;;;0.60;;
79755;SDS011;69239;50.678;12.280;2023-11-19T10:40:40;3.63;;;0.70;;
79755;SDS011;69239;50.678;12.280;2023-11-19T10:43:06;2.63;;;1.17;;
79755;SDS011;69239;50.678;12.280;2023-11-19T10:45:35;3.40;;;1.10;;
79755;SDS011;69239;50.678;12.280;2023-11-19T10:48:02;3.25;;;0.73;;
79755;SDS011;69239;50.678;12.280;2023-11-19T10:50:31;3.17;;;0.68;;
79755;SDS011;69239;50.678;12.280;2023-11-19T10:53:01;3.03;;;0.90;;
79755;SDS011;69239;50.678;12.280;2023-11-19T10:55:37;4.78;;;1.08;;
79755;SDS011;69239;50.678;12.280;2023-11-19T10:58:06;3.88;;;0.98;;
79755;SDS011;69239;50.678;12.280;2023-11-19T11:00:47;2.85;;;0.60;;
79755;SDS011;69239;50.678;12.280;2023-11-19T11:03:19;3.50;;;0.88;;
79755;SDS011;69239;50.678;12.280;2023-11-19T11:05:47;2.58;;;1.00;;
79755;SDS011;69239;50.678;12.280;2023-11-19T11:08:13;6.43;;;1.05;;
79755;SDS011;69239;50.678;12.280;2023-11-19T11:10:42;3.90;;;0.90;;
79755;SDS011;69239;50.678;12.280;2023-11-19T11:13:09;2.20;;;0.95;;
79755;SDS011;69239;50.678;12.280;2023-11-19T11:15:35;4.90;;;1.30;;
79755;SDS011;69239;50.678;12.280;2023-11-19T11:18:01;2.50;;;1.25;;
79755;SDS011;69239;50.678;12.280;2023-11-19T11:20:31;2.10;;;0.77;;
79755;SDS011;69239;50.678;12.280;2023-11-19T11:25:52;3.33;;;0.77;;
79755;SDS011;69239;50.678;12.280;2023-11-19T11:28:52;1.83;;;0.50;;
79755;SDS011;69239;50.678;12.280;2023-11-19T11:39:16;3.60;;;0.80;;
79755;SDS011;69239;50.678;12.280;2023-11-19T11:41:42;3.38;;;1.25;;
79755;SDS011;69239;50.678;12.280;2023-11-19T11:44:08;4.93;;;1.52;;
79755;SDS011;69239;50.678;12.280;2023-11-19T11:49:05;1.88;;;0.77;;
79755;SDS011;69239;50.678;12.280;2023-11-19T11:57:03;4.07;;;0.90;;
79755;SDS011;69239;50.678;12.280;2023-11-19T12:02:11;5.03;;;0.90;;
79755;SDS011;69239;50.678;12.280;2023-11-19T12:04:39;4.35;;;0.90;;
79755;SDS011;69239;50.678;12.280;2023-11-19T12:07:08;2.65;;;0.68;;
79755;SDS011;69239;50.678;12.280;2023-11-19T12:09:40;4.82;;;0.80;;
79755;SDS011;69239;50.678;12.280;2023-11-19T12:12:17;5.88;;;1.33;;
79755;SDS011;69239;50.678;12.280;2023-11-19T12:17:48;5.47;;;1.35;;
79755;SDS011;69239;50.678;12.280;2023-11-19T12:20:14;4.35;;;1.15;;
79755;SDS011;69239;50.678;12.280;2023-11-19T12:22:42;5.50;;;1.33;;
79755;SDS011;69239;50.678;12.280;2023-11-19T12:25:09;4.97;;;0.82;;
79755;SDS011;69239;50.678;12.280;2023-11-19T12:27:36;6.20;;;1.20;;
79755;SDS011;69239;50.678;12.280;2023-11-19T12:30:02;5.25;;;1.15;;
79755;SDS011;69239;50.678;12.280;2023-11-19T12:32:40;2.85;;;1.17;;
79755;SDS011;69239;50.678;12.280;2023-11-19T12:35:10;4.95;;;0.95;;
79755;SDS011;69239;50.678;12.280;2023-11-19T12:37:40;3.95;;;1.10;;
79755;SDS011;69239;50.678;12.280;2023-11-19T12:40:16;3.05;;;0.90;;
79755;SDS011;69239;50.678;12.280;2023-11-19T12:42:50;8.38;;;2.20;;
79755;SDS011;69239;50.678;12.280;2023-11-19T12:45:19;6.90;;;1.15;;
79755;SDS011;69239;50.678;12.280;2023-11-19T12:47:46;2.88;;;1.02;;
79755;SDS011;69239;50.678;12.280;2023-11-19T12:50:13;4.25;;;1.17;;
79755;SDS011;69239;50.678;12.280;2023-11-19T12:52:40;4.07;;;1.08;;
79755;SDS011;69239;50.678;12.280;2023-11-19T12:55:23;5.85;;;1.23;;
79755;SDS011;69239;50.678;12.280;2023-11-19T12:57:53;4.10;;;1.10;;
79755;SDS011;69239;50.678;12.280;2023-11-19T13:00:23;7.07;;;1.90;;
79755;SDS011;69239;50.678;12.280;2023-11-19T13:02:50;4.88;;;1.70;;
79755;SDS011;69239;50.678;12.280;2023-11-19T13:05:27;7.07;;;1.52;;
79755;SDS011;69239;50.678;12.280;2023-11-19T13:10:27;8.93;;;1.15;;
79755;SDS011;69239;50.678;12.280;2023-11-19T13:13:06;5.65;;;1.33;;
79755;SDS011;69239;50.678;12.280;2023-11-19T13:15:33;3.92;;;1.00;;
79755;SDS011;69239;50.678;12.280;2023-11-19T13:18:00;5.07;;;2.15;;
79755;SDS011;69239;50.678;12.280;2023-11-19T13:20:26;4.60;;;1.02;;
79755;SDS011;69239;50.678;12.280;2023-11-19T13:22:55;4.53;;;1.13;;
79755;SDS011;69239;50.678;12.280;2023-11-19T13:25:21;4.38;;;1.17;;
79755;SDS011;69239;50.678;12.280;2023-11-19T13:27:47;3.55;;;1.30;;
79755;SDS011;69239;50.678;12.280;2023-11-19T13:30:12;7.30;;;1.73;;
79755;SDS011;69239;50.678;12.280;2023-11-19T13:32:38;6.28;;;1.48;;
79755;SDS011;69239;50.678;12.280;2023-11-19T13:35:04;5.30;;;1.35;;
79755;SDS011;69239;50.678;12.280;2023-11-19T13:37:30;6.20;;;1.73;;
79755;SDS011;69239;50.678;12.280;2023-11-19T13:39:56;9.15;;;1.92;;
79755;SDS011;69239;50.678;12.280;2023-11-19T13:42:21;4.65;;;1.65;;
79755;SDS011;69239;50.678;12.280;2023-11-19T13:44:46;7.97;;;1.83;;
79755;SDS011;69239;50.678;12.280;2023-11-19T13:47:12;5.28;;;1.50;;
79755;SDS011;69239;50.678;12.280;2023-11-19T13:49:38;5.88;;;2.05;;
79755;SDS011;69239;50.678;12.280;2023-11-19T13:52:04;5.50;;;1.50;;
79755;SDS011;69239;50.678;12.280;2023-11-19T13:54:30;5.68;;;1.42;;
79755;SDS011;69239;50.678;12.280;2023-11-19T13:56:55;3.05;;;1.05;;
79755;SDS011;69239;50.678;12.280;2023-11-19T13:59:23;6.75;;;1.35;;
79755;SDS011;69239;50.678;12.280;2023-11-19T14:01:48;5.50;;;1.90;;
79755;SDS011;69239;50.678;12.280;2023-11-19T14:04:14;3.85;;;1.17;;
79755;SDS011;69239;50.678;12.280;2023-11-19T14:06:40;5.43;;;1.05;;
79755;SDS011;69239;50.678;12.280;2023-11-19T14:09:06;7.18;;;1.23;;
79755;SDS011;69239;50.678;12.280;2023-11-19T14:11:32;7.70;;;1.80;;
79755;SDS011;69239;50.678;12.280;2023-11-19T14:13:57;6.10;;;1.80;;
79755;SDS011;69239;50.678;12.280;2023-11-19T14:16:26;4.65;;;2.00;;
79755;SDS011;69239;50.678;12.280;2023-11-19T14:18:52;18.15;;;7.30;;
79755;SDS011;69239;50.678;12.280;2023-11-19T14:21:17;9.05;;;3.00;;
79755;SDS011;69239;50.678;12.280;2023-11-19T14:23:43;15.57;;;5.05;;
79755;SDS011;69239;50.678;12.280;2023-11-19T14:26:08;12.55;;;4.70;;
79755;SDS011;69239;50.678;12.280;2023-11-19T14:28:34;5.35;;;2.28;;
79755;SDS011;69239;50.678;12.280;2023-11-19T14:31:00;4.90;;;1.25;;
79755;SDS011;69239;50.678;12.280;2023-11-19T14:33:25;2.65;;;1.25;;
79755;SDS011;69239;50.678;12.280;2023-11-19T14:35:51;6.85;;;1.30;;
79755;SDS011;69239;50.678;12.280;2023-11-19T14:38:17;5.50;;;1.58;;
79755;SDS011;69239;50.678;12.280;2023-11-19T14:40:42;4.63;;;1.00;;
79755;SDS011;69239;50.678;12.280;2023-11-19T14:43:08;7.43;;;1.20;;
79755;SDS011;69239;50.678;12.280;2023-11-19T14:45:36;3.85;;;1.58;;
79755;SDS011;69239;50.678;12.280;2023-11-19T14:48:02;5.15;;;1.10;;
79755;SDS011;69239;50.678;12.280;2023-11-19T14:50:27;6.45;;;1.30;;
79755;SDS011;69239;50.678;12.280;2023-11-19T14:52:53;6.85;;;1.90;;
79755;SDS011;69239;50.678;12.280;2023-11-19T14:55:18;4.90;;;1.30;;
79755;SDS011;69239;50.678;12.280;2023-11-19T14:57:44;8.77;;;1.45;;
79755;SDS011;69239;50.678;12.280;2023-11-19T15:00:10;8.48;;;1.40;;